sensor_id;sensor_type;location;lat;lon;timestamp;pressure;altitude;pressure_sealevel;temperature
71630;BMP280;59479;51.902;8.212;2022-10-22T00:00:51;100472.91;;;15.08
71630;BMP280;59479;51.902;8.212;2022-10-22T00:03:17;100462.81;;;15.07
71630;BMP280;59479;51.902;8.212;2022-10-22T00:05:42;100467.03;;;15.05
71630;BMP280;59479;51.902;8.212;2022-10-22T00:08:07;100470.38;;;15.08
71630;BMP280;59479;51.902;8.212;2022-10-22T00:10:32;100483.09;;;15.04
71630;BMP280;59479;51.902;8.212;2022-10-22T00:12:58;100477.16;;;15.05
71630;BMP280;59479;51.902;8.212;2022-10-22T00:15:24;100476.41;;;15.01
71630;BMP280;59479;51.902;8.212;2022-10-22T00:17:49;100473.03;;;15.01
71630;BMP280;59479;51.902;8.212;2022-10-22T00:20:15;100480.63;;;15.01
71630;BMP280;59479;51.902;8.212;2022-10-22T00:22:40;100480.63;;;15.01
71630;BMP280;59479;51.902;8.212;2022-10-22T00:25:06;100479.84;;;14.97
71630;BMP280;59479;51.902;8.212;2022-10-22T00:27:31;100484.94;;;14.96
71630;BMP280;59479;51.902;8.212;2022-10-22T00:29:57;100499.38;;;14.91
71630;BMP280;59479;51.902;8.212;2022-10-22T00:32:22;100512.97;;;14.87
71630;BMP280;59479;51.902;8.212;2022-10-22T00:34:47;100507.13;;;14.83
71630;BMP280;59479;51.902;8.212;2022-10-22T00:37:12;100504.59;;;14.85
71630;BMP280;59479;51.902;8.212;2022-10-22T00:39:38;100504.44;;;14.91
71630;BMP280;59479;51.902;8.212;2022-10-22T00:42:03;100493.38;;;14.96
71630;BMP280;59479;51.902;8.212;2022-10-22T00:45:05;100490.03;;;14.94
71630;BMP280;59479;51.902;8.212;2022-10-22T00:47:40;100507.78;;;14.93
71630;BMP280;59479;51.902;8.212;2022-10-22T00:50:12;100504.59;;;14.85
71630;BMP280;59479;51.902;8.212;2022-10-22T00:52:38;100507.94;;;14.85
71630;BMP280;59479;51.902;8.212;2022-10-22T00:55:04;100511.34;;;14.83
71630;BMP280;59479;51.902;8.212;2022-10-22T00:57:33;100518.03;;;14.87
71630;BMP280;59479;51.902;8.212;2022-10-22T00:59:59;100520.63;;;14.84
71630;BMP280;59479;51.902;8.212;2022-10-22T01:02:25;100512.97;;;14.87
71630;BMP280;59479;51.902;8.212;2022-10-22T01:04:50;100507.88;;;14.90
71630;BMP280;59479;51.902;8.212;2022-10-22T01:07:19;100512.97;;;14.87
71630;BMP280;59479;51.902;8.212;2022-10-22T01:09:51;100497.03;;;14.83
71630;BMP280;59479;51.902;8.212;2022-10-22T01:15:09;100503.84;;;14.80
71630;BMP280;59479;51.902;8.212;2022-10-22T01:17:58;100499.69;;;14.76
71630;BMP280;59479;51.902;8.212;2022-10-22T01:20:45;100485.47;;;14.70
71630;BMP280;59479;51.902;8.212;2022-10-22T01:24:18;100482.94;;;14.69
71630;BMP280;59479;51.902;8.212;2022-10-22T01:26:31;100487.19;;;14.69
71630;BMP280;59479;51.902;8.212;2022-10-22T01:31:38;100490.50;;;14.70
71630;BMP280;59479;51.902;8.212;2022-10-22T01:34:07;100477.91;;;14.69
71630;BMP280;59479;51.902;8.212;2022-10-22T01:36:34;100487.91;;;14.75
71630;BMP280;59479;51.902;8.212;2022-10-22T01:39:02;100482.94;;;14.69
71630;BMP280;59479;51.902;8.212;2022-10-22T01:41:29;100488.00;;;14.70
71630;BMP280;59479;51.902;8.212;2022-10-22T01:43:55;100482.94;;;14.69
71630;BMP280;59479;51.902;8.212;2022-10-22T01:46:23;100486.28;;;14.71
71630;BMP280;59479;51.902;8.212;2022-10-22T01:49:05;100487.25;;;14.64
71630;BMP280;59479;51.902;8.212;2022-10-22T01:52:02;100483.09;;;14.63
71630;BMP280;59479;51.902;8.212;2022-10-22T01:54:48;100489.84;;;14.61
71630;BMP280;59479;51.902;8.212;2022-10-22T01:57:30;100502.50;;;14.61
71630;BMP280;59479;51.902;8.212;2022-10-22T02:00:06;100496.56;;;14.62
71630;BMP280;59479;51.902;8.212;2022-10-22T02:02:42;100486.47;;;14.62
71630;BMP280;59479;51.902;8.212;2022-10-22T02:05:20;100490.66;;;14.63
71630;BMP280;59479;51.902;8.212;2022-10-22T02:08:00;100468.91;;;14.55
71630;BMP280;59479;51.902;8.212;2022-10-22T02:10:28;100472.09;;;14.64
71630;BMP280;59479;51.902;8.212;2022-10-22T02:12:55;100476.34;;;14.62
71630;BMP280;59479;51.902;8.212;2022-10-22T02:15:22;100463.66;;;14.65
71630;BMP280;59479;51.902;8.212;2022-10-22T02:17:49;100459.38;;;14.67
71630;BMP280;59479;51.902;8.212;2022-10-22T02:20:18;100452.53;;;14.72
71630;BMP280;59479;51.902;8.212;2022-10-22T02:22:45;100448.34;;;14.71
71630;BMP280;59479;51.902;8.212;2022-10-22T02:25:11;100459.38;;;14.67
71630;BMP280;59479;51.902;8.212;2022-10-22T02:27:48;100455.38;;;14.56
71630;BMP280;59479;51.902;8.212;2022-10-22T02:30:17;100466.41;;;14.53
71630;BMP280;59479;51.902;8.212;2022-10-22T02:35:21;100454.63;;;14.52
71630;BMP280;59479;51.902;8.212;2022-10-22T02:37:48;100467.25;;;14.52
71630;BMP280;59479;51.902;8.212;2022-10-22T02:40:13;100466.47;;;14.50
71630;BMP280;59479;51.902;8.212;2022-10-22T02:42:40;100460.56;;;14.50
71630;BMP280;59479;51.902;8.212;2022-10-22T02:45:07;100463.13;;;14.48
71630;BMP280;59479;51.902;8.212;2022-10-22T02:47:32;100462.38;;;14.43
71630;BMP280;59479;51.902;8.212;2022-10-22T02:49:57;100468.28;;;14.42
71630;BMP280;59479;51.902;8.212;2022-10-22T02:52:23;100480.22;;;14.34
71630;BMP280;59479;51.902;8.212;2022-10-22T02:54:48;100476.97;;;14.28
71630;BMP280;59479;51.902;8.212;2022-10-22T02:57:14;100486.22;;;14.29
71630;BMP280;59479;51.902;8.212;2022-10-22T02:59:39;100488.69;;;14.33
71630;BMP280;59479;51.902;8.212;2022-10-22T03:02:04;100481.09;;;14.33
71630;BMP280;59479;51.902;8.212;2022-10-22T03:04:30;100482.88;;;14.27
71630;BMP280;59479;51.902;8.212;2022-10-22T03:06:55;100481.94;;;14.32
71630;BMP280;59479;51.902;8.212;2022-10-22T03:09:20;100487.16;;;14.24
71630;BMP280;59479;51.902;8.212;2022-10-22T03:11:46;100497.38;;;14.18
71630;BMP280;59479;51.902;8.212;2022-10-22T03:14:11;100502.41;;;14.18
71630;BMP280;59479;51.902;8.212;2022-10-22T03:16:37;100494.00;;;14.19
71630;BMP280;59479;51.902;8.212;2022-10-22T03:19:02;100500.69;;;14.20
71630;BMP280;59479;51.902;8.212;2022-10-22T03:21:43;100509.13;;;14.22
71630;BMP280;59479;51.902;8.212;2022-10-22T03:24:17;100496.53;;;14.19
71630;BMP280;59479;51.902;8.212;2022-10-22T03:26:44;100497.41;;;14.15
71630;BMP280;59479;51.902;8.212;2022-10-22T03:29:12;100507.53;;;14.15
71630;BMP280;59479;51.902;8.212;2022-10-22T03:31:38;100515.00;;;14.22
71630;BMP280;59479;51.902;8.212;2022-10-22T03:34:03;100516.69;;;14.23
71630;BMP280;59479;51.902;8.212;2022-10-22T03:36:30;100514.94;;;14.25
71630;BMP280;59479;51.902;8.212;2022-10-22T03:38:55;100520.88;;;14.23
71630;BMP280;59479;51.902;8.212;2022-10-22T03:41:21;100520.03;;;14.24
71630;BMP280;59479;51.902;8.212;2022-10-22T03:43:46;100513.28;;;14.23
71630;BMP280;59479;51.902;8.212;2022-10-22T03:46:15;100510.75;;;14.23
71630;BMP280;59479;51.902;8.212;2022-10-22T03:48:40;100509.13;;;14.22
71630;BMP280;59479;51.902;8.212;2022-10-22T03:51:06;100512.56;;;14.15
71630;BMP280;59479;51.902;8.212;2022-10-22T03:53:31;100514.25;;;14.16
71630;BMP280;59479;51.902;8.212;2022-10-22T03:55:56;100521.75;;;14.22
71630;BMP280;59479;51.902;8.212;2022-10-22T03:58:22;100526.72;;;14.25
71630;BMP280;59479;51.902;8.212;2022-10-22T04:00:47;100526.84;;;14.19
71630;BMP280;59479;51.902;8.212;2022-10-22T04:03:12;100532.78;;;14.15
71630;BMP280;59479;51.902;8.212;2022-10-22T04:05:38;100542.97;;;14.13
71630;BMP280;59479;51.902;8.212;2022-10-22T04:08:03;100538.75;;;14.11
71630;BMP280;59479;51.902;8.212;2022-10-22T04:10:28;100537.84;;;14.15
71630;BMP280;59479;51.902;8.212;2022-10-22T04:12:54;100543.75;;;14.17
71630;BMP280;59479;51.902;8.212;2022-10-22T04:15:19;100531.09;;;14.17
71630;BMP280;59479;51.902;8.212;2022-10-22T04:17:44;100532.88;;;14.12
71630;BMP280;59479;51.902;8.212;2022-10-22T04:20:10;100536.28;;;14.06
71630;BMP280;59479;51.902;8.212;2022-10-22T04:22:36;100532.09;;;14.07
71630;BMP280;59479;51.902;8.212;2022-10-22T04:25:02;100530.44;;;14.04
71630;BMP280;59479;51.902;8.212;2022-10-22T04:27:32;100542.25;;;14.01
71630;BMP280;59479;51.902;8.212;2022-10-22T04:29:57;100541.44;;;13.99
71630;BMP280;59479;51.902;8.212;2022-10-22T04:32:23;100544.03;;;13.96
71630;BMP280;59479;51.902;8.212;2022-10-22T04:34:49;100545.69;;;13.98
71630;BMP280;59479;51.902;8.212;2022-10-22T04:37:14;100540.69;;;13.94
71630;BMP280;59479;51.902;8.212;2022-10-22T04:39:39;100538.19;;;13.91
71630;BMP280;59479;51.902;8.212;2022-10-22T04:42:05;100539.78;;;13.98
71630;BMP280;59479;51.902;8.212;2022-10-22T04:44:30;100541.53;;;13.93
71630;BMP280;59479;51.902;8.212;2022-10-22T04:46:55;100528.03;;;13.95
71630;BMP280;59479;51.902;8.212;2022-10-22T04:49:21;100533.03;;;14.00
71630;BMP280;59479;51.902;8.212;2022-10-22T04:51:46;100532.16;;;14.01
71630;BMP280;59479;51.902;8.212;2022-10-22T04:54:11;100531.31;;;14.02
71630;BMP280;59479;51.902;8.212;2022-10-22T04:56:37;100538.91;;;14.03
71630;BMP280;59479;51.902;8.212;2022-10-22T04:59:05;100538.00;;;14.06
71630;BMP280;59479;51.902;8.212;2022-10-22T05:01:36;100538.91;;;14.03
71630;BMP280;59479;51.902;8.212;2022-10-22T05:04:03;100534.66;;;14.02
71630;BMP280;59479;51.902;8.212;2022-10-22T05:06:31;100543.13;;;14.00
71630;BMP280;59479;51.902;8.212;2022-10-22T05:08:59;100539.78;;;13.98
71630;BMP280;59479;51.902;8.212;2022-10-22T05:11:29;100549.84;;;13.99
71630;BMP280;59479;51.902;8.212;2022-10-22T05:13:56;100551.56;;;13.99
71630;BMP280;59479;51.902;8.212;2022-10-22T05:16:21;100549.88;;;13.98
71630;BMP280;59479;51.902;8.212;2022-10-22T05:18:47;100551.53;;;14.02
71630;BMP280;59479;51.902;8.212;2022-10-22T05:21:15;100554.09;;;13.97
71630;BMP280;59479;51.902;8.212;2022-10-22T05:23:41;100556.63;;;13.99
71630;BMP280;59479;51.902;8.212;2022-10-22T05:26:09;100554.09;;;13.97
71630;BMP280;59479;51.902;8.212;2022-10-22T05:28:34;100552.38;;;13.99
71630;BMP280;59479;51.902;8.212;2022-10-22T05:31:00;100555.78;;;13.98
71630;BMP280;59479;51.902;8.212;2022-10-22T05:33:27;100569.22;;;14.03
71630;BMP280;59479;51.902;8.212;2022-10-22T05:35:54;100563.31;;;14.03
71630;BMP280;59479;51.902;8.212;2022-10-22T05:38:20;100563.31;;;14.03
71630;BMP280;59479;51.902;8.212;2022-10-22T05:40:45;100561.63;;;14.05
71630;BMP280;59479;51.902;8.212;2022-10-22T05:43:11;100573.41;;;14.03
71630;BMP280;59479;51.902;8.212;2022-10-22T05:45:37;100568.31;;;14.06
71630;BMP280;59479;51.902;8.212;2022-10-22T05:48:03;100573.50;;;13.97
71630;BMP280;59479;51.902;8.212;2022-10-22T05:50:29;100562.50;;;13.98
71630;BMP280;59479;51.902;8.212;2022-10-22T05:52:54;100565.00;;;14.04
71630;BMP280;59479;51.902;8.212;2022-10-22T05:55:20;100568.38;;;14.03
71630;BMP280;59479;51.902;8.212;2022-10-22T05:57:45;100565.91;;;13.98
71630;BMP280;59479;51.902;8.212;2022-10-22T06:00:11;100580.19;;;13.98
71630;BMP280;59479;51.902;8.212;2022-10-22T06:02:36;100576.91;;;13.93
71630;BMP280;59479;51.902;8.212;2022-10-22T06:05:02;100578.59;;;13.94
71630;BMP280;59479;51.902;8.212;2022-10-22T06:07:27;100588.69;;;13.94
71630;BMP280;59479;51.902;8.212;2022-10-22T06:09:52;100587.75;;;13.99
71630;BMP280;59479;51.902;8.212;2022-10-22T06:12:18;100597.84;;;14.01
71630;BMP280;59479;51.902;8.212;2022-10-22T06:14:43;100604.59;;;14.02
71630;BMP280;59479;51.902;8.212;2022-10-22T06:17:10;100599.56;;;14.03
71630;BMP280;59479;51.902;8.212;2022-10-22T06:19:36;100599.56;;;13.99
71630;BMP280;59479;51.902;8.212;2022-10-22T06:22:02;100601.22;;;14.03
71630;BMP280;59479;51.902;8.212;2022-10-22T06:24:28;100603.69;;;14.07
71630;BMP280;59479;51.902;8.212;2022-10-22T06:26:53;100605.38;;;14.07
71630;BMP280;59479;51.902;8.212;2022-10-22T06:29:19;100606.19;;;14.09
71630;BMP280;59479;51.902;8.212;2022-10-22T06:31:44;100620.41;;;14.16
71630;BMP280;59479;51.902;8.212;2022-10-22T06:34:11;100614.56;;;14.14
71630;BMP280;59479;51.902;8.212;2022-10-22T06:36:37;100615.41;;;14.13
71630;BMP280;59479;51.902;8.212;2022-10-22T06:39:03;100612.94;;;14.08
71630;BMP280;59479;51.902;8.212;2022-10-22T06:41:29;100607.91;;;14.08
71630;BMP280;59479;51.902;8.212;2022-10-22T06:43:55;100619.63;;;14.12
71630;BMP280;59479;51.902;8.212;2022-10-22T06:46:22;100621.25;;;14.15
71630;BMP280;59479;51.902;8.212;2022-10-22T06:51:44;100633.06;;;14.16
71630;BMP280;59479;51.902;8.212;2022-10-22T06:54:10;100638.06;;;14.20
71630;BMP280;59479;51.902;8.212;2022-10-22T06:56:35;100643.13;;;14.19
71630;BMP280;59479;51.902;8.212;2022-10-22T06:59:01;100646.47;;;14.19
71630;BMP280;59479;51.902;8.212;2022-10-22T07:01:31;100653.19;;;14.22
71630;BMP280;59479;51.902;8.212;2022-10-22T07:04:00;100654.81;;;14.26
71630;BMP280;59479;51.902;8.212;2022-10-22T07:06:29;100662.34;;;14.28
71630;BMP280;59479;51.902;8.212;2022-10-22T07:08:58;100659.03;;;14.27
71630;BMP280;59479;51.902;8.212;2022-10-22T07:11:44;100660.63;;;14.30
71630;BMP280;59479;51.902;8.212;2022-10-22T07:14:17;100664.88;;;14.30
71630;BMP280;59479;51.902;8.212;2022-10-22T07:16:45;100667.47;;;14.23
71630;BMP280;59479;51.902;8.212;2022-10-22T07:19:11;100671.69;;;14.24
71630;BMP280;59479;51.902;8.212;2022-10-22T07:21:39;100675.84;;;14.27
71630;BMP280;59479;51.902;8.212;2022-10-22T07:24:05;100681.69;;;14.31
71630;BMP280;59479;51.902;8.212;2022-10-22T07:26:31;100689.25;;;14.32
71630;BMP280;59479;51.902;8.212;2022-10-22T07:29:04;100690.13;;;14.31
71630;BMP280;59479;51.902;8.212;2022-10-22T07:31:29;100687.50;;;14.36
71630;BMP280;59479;51.902;8.212;2022-10-22T07:34:15;100692.59;;;14.34
71630;BMP280;59479;51.902;8.212;2022-10-22T07:36:46;100690.84;;;14.38
71630;BMP280;59479;51.902;8.212;2022-10-22T07:39:19;100691.75;;;14.35
71630;BMP280;59479;51.902;8.212;2022-10-22T07:41:48;100692.53;;;14.39
71630;BMP280;59479;51.902;8.212;2022-10-22T07:44:16;100701.81;;;14.38
71630;BMP280;59479;51.902;8.212;2022-10-22T07:46:44;100692.53;;;14.39
71630;BMP280;59479;51.902;8.212;2022-10-22T07:49:09;100700.91;;;14.42
71630;BMP280;59479;51.902;8.212;2022-10-22T07:51:37;100705.97;;;14.42
71630;BMP280;59479;51.902;8.212;2022-10-22T07:54:06;100713.53;;;14.45
71630;BMP280;59479;51.902;8.212;2022-10-22T07:56:31;100712.63;;;14.48
71630;BMP280;59479;51.902;8.212;2022-10-22T07:59:00;100711.75;;;14.50
71630;BMP280;59479;51.902;8.212;2022-10-22T08:01:30;100710.84;;;14.54
71630;BMP280;59479;51.902;8.212;2022-10-22T08:03:55;100710.78;;;14.60
71630;BMP280;59479;51.902;8.212;2022-10-22T08:06:21;100704.91;;;14.58
71630;BMP280;59479;51.902;8.212;2022-10-22T08:08:49;100709.00;;;14.65
71630;BMP280;59479;51.902;8.212;2022-10-22T08:11:18;100716.44;;;14.74
71630;BMP280;59479;51.902;8.212;2022-10-22T08:13:52;100718.13;;;14.75
71630;BMP280;59479;51.902;8.212;2022-10-22T08:16:20;100711.31;;;14.78
71630;BMP280;59479;51.902;8.212;2022-10-22T08:18:49;100725.56;;;14.84
71630;BMP280;59479;51.902;8.212;2022-10-22T08:21:14;100717.13;;;14.85
71630;BMP280;59479;51.902;8.212;2022-10-22T08:23:41;100721.19;;;14.95
71630;BMP280;59479;51.902;8.212;2022-10-22T08:26:06;100724.50;;;14.98
71630;BMP280;59479;51.902;8.212;2022-10-22T08:28:32;100727.78;;;15.03
71630;BMP280;59479;51.902;8.212;2022-10-22T08:31:01;100729.31;;;15.13
71630;BMP280;59479;51.902;8.212;2022-10-22T08:33:27;100731.91;;;15.09
71630;BMP280;59479;51.902;8.212;2022-10-22T08:35:52;100736.00;;;15.18
71630;BMP280;59479;51.902;8.212;2022-10-22T08:38:18;100731.66;;;15.26
71630;BMP280;59479;51.902;8.212;2022-10-22T08:40:48;100729.97;;;15.25
71630;BMP280;59479;51.902;8.212;2022-10-22T08:46:26;100741.38;;;15.49
71630;BMP280;59479;51.902;8.212;2022-10-22T08:48:56;100738.00;;;15.48
71630;BMP280;59479;51.902;8.212;2022-10-22T08:51:25;100742.06;;;15.56
71630;BMP280;59479;51.902;8.212;2022-10-22T08:56:35;100739.56;;;15.55
71630;BMP280;59479;51.902;8.212;2022-10-22T08:59:25;100742.94;;;15.54
71630;BMP280;59479;51.902;8.212;2022-10-22T09:01:52;100751.31;;;15.57
71630;BMP280;59479;51.902;8.212;2022-10-22T09:04:23;100749.69;;;15.55
71630;BMP280;59479;51.902;8.212;2022-10-22T09:06:54;100743.63;;;15.63
71630;BMP280;59479;51.902;8.212;2022-10-22T09:09:25;100754.53;;;15.67
71630;BMP280;59479;51.902;8.212;2022-10-22T09:11:53;100746.94;;;15.67
71630;BMP280;59479;51.902;8.212;2022-10-22T09:14:22;100759.41;;;15.76
71630;BMP280;59479;51.902;8.212;2022-10-22T09:17:10;100752.63;;;15.78
71630;BMP280;59479;51.902;8.212;2022-10-22T09:25:28;100762.41;;;15.96
71630;BMP280;59479;51.902;8.212;2022-10-22T09:27:54;100763.84;;;16.08
71630;BMP280;59479;51.902;8.212;2022-10-22T09:30:24;100768.78;;;16.14
71630;BMP280;59479;51.902;8.212;2022-10-22T09:35:22;100774.56;;;16.22
71630;BMP280;59479;51.902;8.212;2022-10-22T09:37:53;100765.94;;;16.31
71630;BMP280;59479;51.902;8.212;2022-10-22T09:40:20;100774.31;;;16.34
71630;BMP280;59479;51.902;8.212;2022-10-22T09:42:46;100779.31;;;16.39
71630;BMP280;59479;51.902;8.212;2022-10-22T09:45:33;100775.78;;;16.44
71630;BMP280;59479;51.902;8.212;2022-10-22T09:48:34;100782.53;;;16.46
71630;BMP280;59479;51.902;8.212;2022-10-22T09:51:40;100788.34;;;16.51
71630;BMP280;59479;51.902;8.212;2022-10-22T09:54:15;100783.34;;;16.47
71630;BMP280;59479;51.902;8.212;2022-10-22T09:56:41;100789.84;;;16.60
71630;BMP280;59479;51.902;8.212;2022-10-22T09:59:17;100789.94;;;16.55
71630;BMP280;59479;51.902;8.212;2022-10-22T10:01:43;100792.34;;;16.61
71630;BMP280;59479;51.902;8.212;2022-10-22T10:04:13;100795.41;;;16.75
71630;BMP280;59479;51.902;8.212;2022-10-22T10:06:41;100812.22;;;16.79
71630;BMP280;59479;51.902;8.212;2022-10-22T10:09:21;100813.13;;;16.77
71630;BMP280;59479;51.902;8.212;2022-10-22T10:12:11;100815.44;;;16.87
71630;BMP280;59479;51.902;8.212;2022-10-22T10:17:37;100806.50;;;17.06
71630;BMP280;59479;51.902;8.212;2022-10-22T10:20:26;100810.63;;;17.11
71630;BMP280;59479;51.902;8.212;2022-10-22T10:23:23;100802.97;;;17.13
71630;BMP280;59479;51.902;8.212;2022-10-22T10:26:08;100818.94;;;17.19
71630;BMP280;59479;51.902;8.212;2022-10-22T10:28:39;100804.66;;;17.12
71630;BMP280;59479;51.902;8.212;2022-10-22T10:31:14;100810.44;;;17.20
71630;BMP280;59479;51.902;8.212;2022-10-22T10:33:44;100809.03;;;17.07
71630;BMP280;59479;51.902;8.212;2022-10-22T10:39:02;100824.88;;;17.20
71630;BMP280;59479;51.902;8.212;2022-10-22T10:42:20;100818.03;;;17.22
71630;BMP280;59479;51.902;8.212;2022-10-22T10:54:14;100838.47;;;17.14
71630;BMP280;59479;51.902;8.212;2022-10-22T10:56:45;100844.41;;;17.15
71630;BMP280;59479;51.902;8.212;2022-10-22T11:01:58;100839.25;;;17.19
71630;BMP280;59479;51.902;8.212;2022-10-22T11:07:08;100846.88;;;17.18
71630;BMP280;59479;51.902;8.212;2022-10-22T11:09:40;100852.00;;;17.16
71630;BMP280;59479;51.902;8.212;2022-10-22T11:12:14;100848.50;;;17.22
71630;BMP280;59479;51.902;8.212;2022-10-22T11:14:57;100843.97;;;17.34
71630;BMP280;59479;51.902;8.212;2022-10-22T11:17:25;100849.97;;;17.31
71630;BMP280;59479;51.902;8.212;2022-10-22T11:20:01;100841.25;;;17.41
71630;BMP280;59479;51.902;8.212;2022-10-22T11:22:40;100852.31;;;17.39
71630;BMP280;59479;51.902;8.212;2022-10-22T11:25:43;100853.34;;;17.32
71630;BMP280;59479;51.902;8.212;2022-10-22T11:28:36;100847.16;;;17.42
71630;BMP280;59479;51.902;8.212;2022-10-22T11:31:09;100847.94;;;17.45
71630;BMP280;59479;51.902;8.212;2022-10-22T11:36:49;100849.44;;;17.52
71630;BMP280;59479;51.902;8.212;2022-10-22T11:42:03;100849.44;;;17.52
71630;BMP280;59479;51.902;8.212;2022-10-22T11:44:29;100840.88;;;17.56
71630;BMP280;59479;51.902;8.212;2022-10-22T11:47:03;100851.16;;;17.52
71630;BMP280;59479;51.902;8.212;2022-10-22T11:49:55;100847.69;;;17.54
71630;BMP280;59479;51.902;8.212;2022-10-22T11:55:00;100853.63;;;17.55
71630;BMP280;59479;51.902;8.212;2022-10-22T11:57:35;100856.94;;;17.58
71630;BMP280;59479;51.902;8.212;2022-10-22T12:00:09;100859.41;;;17.61
71630;BMP280;59479;51.902;8.212;2022-10-22T12:02:44;100862.88;;;17.57
71630;BMP280;59479;51.902;8.212;2022-10-22T12:10:19;100869.66;;;17.57
71630;BMP280;59479;51.902;8.212;2022-10-22T12:12:51;100858.53;;;17.61
71630;BMP280;59479;51.902;8.212;2022-10-22T12:15:23;100865.63;;;17.50
71630;BMP280;59479;51.902;8.212;2022-10-22T12:17:49;100851.59;;;17.67
71630;BMP280;59479;51.902;8.212;2022-10-22T12:20:14;100849.03;;;17.68
71630;BMP280;59479;51.902;8.212;2022-10-22T12:22:41;100855.06;;;17.65
71630;BMP280;59479;51.902;8.212;2022-10-22T12:25:24;100853.97;;;17.74
71630;BMP280;59479;51.902;8.212;2022-10-22T12:27:52;100860.88;;;17.69
71630;BMP280;59479;51.902;8.212;2022-10-22T12:30:30;100853.13;;;17.74
71630;BMP280;59479;51.902;8.212;2022-10-22T12:32:58;100854.59;;;17.82
71630;BMP280;59479;51.902;8.212;2022-10-22T12:35:32;100853.63;;;17.88
71630;BMP280;59479;51.902;8.212;2022-10-22T12:38:02;100855.34;;;17.86
71630;BMP280;59479;51.902;8.212;2022-10-22T12:40:30;100850.25;;;17.86
71630;BMP280;59479;51.902;8.212;2022-10-22T12:43:06;100852.16;;;17.79
71630;BMP280;59479;51.902;8.212;2022-10-22T12:45:35;100852.75;;;17.87
71630;BMP280;59479;51.902;8.212;2022-10-22T12:48:04;100861.09;;;17.92
71630;BMP280;59479;51.902;8.212;2022-10-22T12:50:35;100857.13;;;17.82
71630;BMP280;59479;51.902;8.212;2022-10-22T12:53:19;100859.34;;;17.94
71630;BMP280;59479;51.902;8.212;2022-10-22T12:55:49;100848.91;;;17.73
71630;BMP280;59479;51.902;8.212;2022-10-22T12:58:17;100859.84;;;17.76
71630;BMP280;59479;51.902;8.212;2022-10-22T13:00:44;100846.09;;;17.83
71630;BMP280;59479;51.902;8.212;2022-10-22T13:03:25;100861.91;;;17.94
71630;BMP280;59479;51.902;8.212;2022-10-22T13:05:50;100849.09;;;17.97
71630;BMP280;59479;51.902;8.212;2022-10-22T13:08:20;100856.09;;;17.89
71630;BMP280;59479;51.902;8.212;2022-10-22T13:10:51;100855.66;;;17.74
71630;BMP280;59479;51.902;8.212;2022-10-22T13:16:19;100858.31;;;17.71
71630;BMP280;59479;51.902;8.212;2022-10-22T13:18:45;100862.31;;;17.79
71630;BMP280;59479;51.902;8.212;2022-10-22T13:21:32;100857.03;;;17.87
71630;BMP280;59479;51.902;8.212;2022-10-22T13:24:01;100858.94;;;17.77
71630;BMP280;59479;51.902;8.212;2022-10-22T13:26:34;100857.13;;;17.82
71630;BMP280;59479;51.902;8.212;2022-10-22T13:29:02;100855.53;;;17.80
71630;BMP280;59479;51.902;8.212;2022-10-22T13:31:30;100852.31;;;17.72
71630;BMP280;59479;51.902;8.212;2022-10-22T13:34:06;100855.47;;;17.81
71630;BMP280;59479;51.902;8.212;2022-10-22T13:36:34;100856.50;;;17.74
71630;BMP280;59479;51.902;8.212;2022-10-22T13:39:00;100858.56;;;17.92
71630;BMP280;59479;51.902;8.212;2022-10-22T13:41:30;100857.03;;;17.87
71630;BMP280;59479;51.902;8.212;2022-10-22T13:43:58;100864.13;;;17.74
71630;BMP280;59479;51.902;8.212;2022-10-22T13:46:24;100853.91;;;17.76
71630;BMP280;59479;51.902;8.212;2022-10-22T13:48:52;100855.16;;;17.93
71630;BMP280;59479;51.902;8.212;2022-10-22T13:51:22;100855.97;;;17.94
71630;BMP280;59479;51.902;8.212;2022-10-22T13:53:49;100859.69;;;17.82
71630;BMP280;59479;51.902;8.212;2022-10-22T13:56:17;100866.97;;;17.94
71630;BMP280;59479;51.902;8.212;2022-10-22T13:58:43;100863.50;;;17.98
71630;BMP280;59479;51.902;8.212;2022-10-22T14:01:22;100861.09;;;17.92
71630;BMP280;59479;51.902;8.212;2022-10-22T14:03:51;100876.22;;;17.98
71630;BMP280;59479;51.902;8.212;2022-10-22T14:06:18;100869.44;;;17.97
71630;BMP280;59479;51.902;8.212;2022-10-22T14:08:45;100872.16;;;17.91
71630;BMP280;59479;51.902;8.212;2022-10-22T14:11:12;100875.16;;;18.07
71630;BMP280;59479;51.902;8.212;2022-10-22T14:13:38;100877.66;;;18.08
71630;BMP280;59479;51.902;8.212;2022-10-22T14:16:06;100875.84;;;18.13
71630;BMP280;59479;51.902;8.212;2022-10-22T14:18:31;100876.72;;;18.12
71630;BMP280;59479;51.902;8.212;2022-10-22T14:20:59;100876.56;;;18.18
71630;BMP280;59479;51.902;8.212;2022-10-22T14:23:27;100874.81;;;18.20
71630;BMP280;59479;51.902;8.212;2022-10-22T14:25:54;100883.53;;;18.10
71630;BMP280;59479;51.902;8.212;2022-10-22T14:28:19;100887.69;;;18.14
71630;BMP280;59479;51.902;8.212;2022-10-22T14:30:45;100894.38;;;18.18
71630;BMP280;59479;51.902;8.212;2022-10-22T14:33:20;100888.34;;;18.20
71630;BMP280;59479;51.902;8.212;2022-10-22T14:35:47;100886.63;;;18.21
71630;BMP280;59479;51.902;8.212;2022-10-22T14:38:13;100898.59;;;18.17
71630;BMP280;59479;51.902;8.212;2022-10-22T14:40:39;100892.50;;;18.24
71630;BMP280;59479;51.902;8.212;2022-10-22T14:43:06;100895.16;;;18.20
71630;BMP280;59479;51.902;8.212;2022-10-22T14:45:34;100899.56;;;18.13
71630;BMP280;59479;51.902;8.212;2022-10-22T14:47:59;100899.53;;;18.15
71630;BMP280;59479;51.902;8.212;2022-10-22T14:50:26;100898.78;;;18.11
71630;BMP280;59479;51.902;8.212;2022-10-22T14:52:51;100904.16;;;18.00
71630;BMP280;59479;51.902;8.212;2022-10-22T14:55:19;100909.19;;;18.03
71630;BMP280;59479;51.902;8.212;2022-10-22T14:57:45;100912.69;;;17.97
71630;BMP280;59479;51.902;8.212;2022-10-22T15:00:16;100914.50;;;17.92
71630;BMP280;59479;51.902;8.212;2022-10-22T15:02:41;100919.44;;;17.98
71630;BMP280;59479;51.902;8.212;2022-10-22T15:05:07;100929.66;;;17.97
71630;BMP280;59479;51.902;8.212;2022-10-22T15:07:33;100926.19;;;17.99
71630;BMP280;59479;51.902;8.212;2022-10-22T15:09:58;100914.38;;;17.98
71630;BMP280;59479;51.902;8.212;2022-10-22T15:12:23;100922.72;;;18.03